CWHN

Jimmy Lake Airport

Jimmy Lake, Canada
METAR CWHN 231400Z AUTO 22005KT 9SM CLR M18/M20 A2977 RMK SLP130
Observed Flight Rules
Feb-23 @ 14:00 UTC (36 minutes ago) Visual Flight Rules
Wind Visibility Clouds
220° at 5 knots 9 miles
  • Clear skies
Temperatures Readings
Current -18°C / 0°F
Dewpoint -20°C / -4°F
Humidity 84%
Altimeter 29.77" Hg
Pressure 1013 hPa
Elevation 636
METAR CWHN 231400Z AUTO 22005KT 9SM CLR M18/M20 A2977 RMK SLP130
Observed Flight Rules
Feb-23 @ 14:00 UTC
(36 minutes ago)
VFR
Wind Visibility
220° at 5 knots 9 miles
Clouds
  • Clear skies
Temperature Dewpoint
-18°C / 0°F -20°C / -4°F
Humidity Altimeter Pressure
84% 29.77" Hg 1013 hPa